createdAt,value
2019-02-03T00:00:45.239Z,2.06
2019-02-03T00:01:44.939Z,2.00
2019-02-03T00:02:45.266Z,2.10
2019-02-03T00:03:44.764Z,2.07
2019-02-03T00:04:44.676Z,2.06
2019-02-03T00:06:44.078Z,2.06
2019-02-03T00:07:26.615Z,2.10
2019-02-03T00:08:26.528Z,2.09
2019-02-03T00:09:26.689Z,2.09
2019-02-03T00:10:26.352Z,1.99
2019-02-03T00:11:26.266Z,2.03
2019-02-03T00:12:26.178Z,2.06
2019-02-03T00:13:26.090Z,2.07
2019-02-03T00:14:26.002Z,2.10
2019-02-03T00:15:25.917Z,2.02
2019-02-03T00:16:25.840Z,2.02
2019-02-03T00:17:25.741Z,2.10
2019-02-03T00:18:25.653Z,2.09
2019-02-03T00:19:25.569Z,2.07
2019-02-03T00:20:25.690Z,2.12
2019-02-03T00:21:25.391Z,2.12
2019-02-03T00:22:25.303Z,2.09
2019-02-03T00:23:25.223Z,2.02
2019-02-03T00:24:25.128Z,2.03
2019-02-03T00:25:25.041Z,2.05
2019-02-03T00:26:24.954Z,2.14
2019-02-03T00:27:24.855Z,2.12
2019-02-03T00:28:24.779Z,2.21
2019-02-03T00:29:24.694Z,2.21
2019-02-03T00:30:24.603Z,2.16
2019-02-03T00:31:24.505Z,2.16
2019-02-03T00:32:24.418Z,2.20
2019-02-03T00:33:24.329Z,2.23
2019-02-03T00:34:24.246Z,2.10
2019-02-03T00:35:24.154Z,2.17
2019-02-03T00:36:24.067Z,2.17
2019-02-03T00:37:23.980Z,2.09
2019-02-03T00:38:23.901Z,2.09
2019-02-03T00:39:23.820Z,2.20
2019-02-03T00:40:23.719Z,2.17
2019-02-03T00:41:23.705Z,2.05
2019-02-03T00:42:23.542Z,2.10
2019-02-03T00:43:23.455Z,2.21
2019-02-03T00:44:23.368Z,2.21
2019-02-03T00:45:23.280Z,2.17
2019-02-03T00:46:23.192Z,2.17
2019-02-03T00:47:23.118Z,2.21
2019-02-03T00:48:23.018Z,2.17
2019-02-03T00:49:22.930Z,2.21
2019-02-03T00:50:22.953Z,2.16
2019-02-03T00:51:22.757Z,2.20
2019-02-03T00:52:22.669Z,2.23
2019-02-03T00:53:22.582Z,2.10
2019-02-03T00:54:22.494Z,2.24
2019-02-03T00:55:22.407Z,2.21
2019-02-03T00:56:22.319Z,2.24
2019-02-03T00:57:22.231Z,2.24
2019-02-03T00:58:22.144Z,2.17
2019-02-03T00:59:22.058Z,2.23
2019-02-03T01:00:21.970Z,2.18
2019-02-03T01:01:21.882Z,2.24
2019-02-03T01:02:21.802Z,2.21
2019-02-03T01:03:21.708Z,2.12
2019-02-03T01:04:21.620Z,2.20
2019-02-03T01:05:21.532Z,2.27
2019-02-03T01:06:21.444Z,2.25
2019-02-03T01:07:27.711Z,2.21
2019-02-03T01:08:21.271Z,2.23
2019-02-03T01:09:21.183Z,2.25
2019-02-03T01:10:21.096Z,2.18
2019-02-03T01:11:21.007Z,2.28
2019-02-03T01:12:20.921Z,2.25
2019-02-03T01:13:20.833Z,2.21
2019-02-03T01:14:20.746Z,2.20
2019-02-03T01:15:20.658Z,2.18
2019-02-03T01:16:20.572Z,2.21
2019-02-03T01:17:20.483Z,2.20
2019-02-03T01:18:20.397Z,2.14
2019-02-03T01:19:20.317Z,2.17
2019-02-03T01:20:20.221Z,2.20
2019-02-03T01:21:20.133Z,2.23
2019-02-03T01:22:20.046Z,2.24
2019-02-03T01:23:19.948Z,2.27
2019-02-03T01:24:19.872Z,2.25
2019-02-03T01:25:19.784Z,2.31
2019-02-03T01:26:19.686Z,2.31
2019-02-03T01:27:19.600Z,2.25
2019-02-03T01:28:19.510Z,2.27
2019-02-03T01:29:19.423Z,2.28
2019-02-03T01:30:19.337Z,2.38
2019-02-03T01:31:19.248Z,2.39
2019-02-03T01:32:19.173Z,2.38
2019-02-03T01:33:19.074Z,2.24
2019-02-03T01:34:18.985Z,2.27
2019-02-03T01:35:18.905Z,2.34
2019-02-03T01:36:18.811Z,2.35
2019-02-03T01:37:18.724Z,2.36
2019-02-03T01:38:18.635Z,2.42
2019-02-03T01:39:18.549Z,2.41
2019-02-03T01:40:18.476Z,2.39
2019-02-03T01:41:18.373Z,2.41
2019-02-03T01:42:18.290Z,2.38
2019-02-03T01:43:18.202Z,2.43
2019-02-03T01:44:18.111Z,2.36
2019-02-03T01:45:18.073Z,2.42
2019-02-03T01:46:17.936Z,2.38
2019-02-03T01:47:17.850Z,2.39
2019-02-03T01:48:17.774Z,2.46
2019-02-03T01:49:17.674Z,2.38
2019-02-03T01:50:17.587Z,2.39
2019-02-03T01:51:17.506Z,2.36
2019-02-03T01:52:17.412Z,2.27
2019-02-03T01:53:17.326Z,2.38
2019-02-03T01:54:17.237Z,2.25
2019-02-03T01:55:17.152Z,2.25
2019-02-03T01:56:17.062Z,2.28
2019-02-03T01:57:16.975Z,2.30
2019-02-03T01:58:16.887Z,2.25
2019-02-03T01:59:16.802Z,2.25
2019-02-03T02:00:16.712Z,2.24
2019-02-03T02:01:16.626Z,2.30
2019-02-03T02:02:16.537Z,2.27
2019-02-03T02:03:16.451Z,2.31
2019-02-03T02:04:16.375Z,2.34
2019-02-03T02:05:16.277Z,2.39
2019-02-03T02:06:16.188Z,2.28
2019-02-03T02:07:16.103Z,2.28
2019-02-03T02:08:16.019Z,2.25
2019-02-03T02:09:15.926Z,2.28
2019-02-03T02:10:15.838Z,2.38
2019-02-03T02:11:15.754Z,2.25
2019-02-03T02:12:15.664Z,2.27
2019-02-03T02:13:15.577Z,2.25
2019-02-03T02:14:15.490Z,2.21
2019-02-03T02:15:15.403Z,2.27
2019-02-03T02:16:15.314Z,2.21
2019-02-03T02:17:15.228Z,2.23
2019-02-03T02:18:15.139Z,2.25
2019-02-03T02:19:15.052Z,2.25
2019-02-03T02:20:14.965Z,2.18
2019-02-03T02:21:14.878Z,2.18
2019-02-03T02:22:14.803Z,2.18
2019-02-03T02:23:14.702Z,2.10
2019-02-03T02:24:14.614Z,2.20
2019-02-03T02:25:14.528Z,2.20
2019-02-03T02:26:14.439Z,2.17
2019-02-03T02:27:14.360Z,2.28
2019-02-03T02:28:14.265Z,2.28
2019-02-03T02:29:14.178Z,2.27
2019-02-03T02:30:14.090Z,2.28
2019-02-03T02:31:14.005Z,2.27
2019-02-03T02:32:13.915Z,2.39
2019-02-03T02:33:13.831Z,2.30
2019-02-03T02:34:13.756Z,2.28
2019-02-03T02:35:13.655Z,2.23
2019-02-03T02:36:13.566Z,2.27
2019-02-03T02:37:13.484Z,2.31
2019-02-03T02:38:13.395Z,2.30
2019-02-03T02:39:13.303Z,2.30
2019-02-03T02:40:13.541Z,2.38
2019-02-03T02:41:13.132Z,2.31
2019-02-03T02:42:13.044Z,2.34
2019-02-03T02:43:12.961Z,2.34
2019-02-03T02:44:12.867Z,2.35
2019-02-03T02:45:12.781Z,2.36
2019-02-03T02:46:12.692Z,2.34
2019-02-03T02:47:12.606Z,2.34
2019-02-03T02:48:12.518Z,2.38
2019-02-03T02:49:12.430Z,2.39
2019-02-03T02:50:12.343Z,2.25
2019-02-03T02:51:12.257Z,2.27
2019-02-03T02:52:12.181Z,2.30
2019-02-03T02:53:12.083Z,2.39
2019-02-03T02:54:11.993Z,2.38
2019-02-03T02:55:11.907Z,2.35
2019-02-03T02:56:11.818Z,2.34
2019-02-03T02:57:11.732Z,2.39
2019-02-03T02:58:11.643Z,2.38
2019-02-03T02:59:11.545Z,2.35
2019-02-03T03:00:11.492Z,2.38
2019-02-03T03:01:11.387Z,2.38
2019-02-03T03:02:11.293Z,2.34
2019-02-03T03:03:11.199Z,2.35
2019-02-03T03:04:11.113Z,2.35
2019-02-03T03:05:11.032Z,2.45
2019-02-03T03:06:10.943Z,2.39
2019-02-03T03:07:10.846Z,2.39
2019-02-03T03:08:19.039Z,2.34
2019-02-03T03:09:10.671Z,2.35
2019-02-03T03:10:10.583Z,2.41
2019-02-03T03:11:10.496Z,2.35
2019-02-03T03:12:10.407Z,2.42
2019-02-03T03:13:10.323Z,2.36
2019-02-03T03:14:10.235Z,2.36
2019-02-03T03:15:10.145Z,2.38
2019-02-03T03:16:10.066Z,2.39
2019-02-03T03:17:09.971Z,2.42
2019-02-03T03:18:09.883Z,2.41
2019-02-03T03:19:09.795Z,2.42
2019-02-03T03:20:09.708Z,2.34
2019-02-03T03:21:09.621Z,2.43
2019-02-03T03:22:09.539Z,2.41
2019-02-03T03:23:09.447Z,2.39
2019-02-03T03:24:09.360Z,2.43
2019-02-03T03:25:09.270Z,2.41
2019-02-03T03:26:09.186Z,2.41
2019-02-03T03:27:09.097Z,2.43
2019-02-03T03:28:09.009Z,2.38
2019-02-03T03:29:08.934Z,2.39
2019-02-03T03:30:08.840Z,2.42
2019-02-03T03:31:08.761Z,2.42
2019-02-03T03:32:08.661Z,2.35
2019-02-03T03:33:08.573Z,2.42
2019-02-03T03:34:08.485Z,2.38
2019-02-03T03:35:08.398Z,2.36
2019-02-03T03:36:08.310Z,2.35
2019-02-03T03:37:08.234Z,2.38
2019-02-03T03:38:08.139Z,2.38
2019-02-03T03:39:08.047Z,2.41
2019-02-03T03:40:07.962Z,2.35
2019-02-03T03:41:07.872Z,2.39
2019-02-03T03:42:07.855Z,2.36
2019-02-03T03:43:07.710Z,2.42
2019-02-03T03:44:07.612Z,2.36
2019-02-03T03:45:07.523Z,2.35
2019-02-03T03:46:07.441Z,2.38
2019-02-03T03:47:07.348Z,2.39
2019-02-03T03:48:07.261Z,2.34
2019-02-03T03:49:07.174Z,2.39
2019-02-03T03:50:07.086Z,2.39
2019-02-03T03:51:07.000Z,2.45
2019-02-03T03:52:06.913Z,2.42
2019-02-03T03:53:06.823Z,2.46
2019-02-03T03:54:06.738Z,2.46
2019-02-03T03:55:06.649Z,2.49
2019-02-03T03:56:06.562Z,2.41
2019-02-03T03:57:06.475Z,2.52
2019-02-03T03:58:06.387Z,2.41
2019-02-03T03:59:06.301Z,2.41
2019-02-03T04:00:06.216Z,2.42
2019-02-03T04:01:06.137Z,2.38
2019-02-03T04:02:06.038Z,2.36
2019-02-03T04:03:05.953Z,2.38
2019-02-03T04:04:05.864Z,2.41
2019-02-03T04:05:05.777Z,2.49
2019-02-03T04:06:05.692Z,2.34
2019-02-03T04:07:05.600Z,2.43
2019-02-03T04:08:05.515Z,2.43
2019-02-03T04:09:05.427Z,2.36
2019-02-03T04:10:05.349Z,2.42
2019-02-03T04:11:05.250Z,2.39
2019-02-03T04:12:05.164Z,2.49
2019-02-03T04:13:05.090Z,2.43
2019-02-03T04:14:04.996Z,2.41
2019-02-03T04:15:04.901Z,2.39
2019-02-03T04:16:04.820Z,2.39
2019-02-03T04:17:04.726Z,2.38
2019-02-03T04:18:04.639Z,2.38
2019-02-03T04:19:04.552Z,2.38
2019-02-03T04:20:04.466Z,2.39
2019-02-03T04:21:04.378Z,2.36
2019-02-03T04:22:04.306Z,2.39
2019-02-03T04:23:04.202Z,2.42
2019-02-03T04:24:04.115Z,2.39
2019-02-03T04:25:04.027Z,2.41
2019-02-03T04:26:03.941Z,2.43
2019-02-03T04:27:03.857Z,2.38
2019-02-03T04:28:03.765Z,2.35
2019-02-03T04:29:03.691Z,2.42
2019-02-03T04:30:03.592Z,2.36
2019-02-03T04:31:03.520Z,2.34
2019-02-03T04:32:03.420Z,2.35
2019-02-03T04:33:03.345Z,2.41
2019-02-03T04:34:03.242Z,2.31
2019-02-03T04:35:03.153Z,2.46
2019-02-03T04:36:03.067Z,2.43
2019-02-03T04:37:02.979Z,2.52
2019-02-03T04:38:02.892Z,2.41
2019-02-03T04:39:03.105Z,2.36
2019-02-03T04:40:02.718Z,2.46
2019-02-03T04:41:02.628Z,2.48
2019-02-03T04:42:02.541Z,2.35
2019-02-03T04:43:02.454Z,2.42
2019-02-03T04:44:02.367Z,2.36
2019-02-03T04:45:02.282Z,2.52
2019-02-03T04:46:02.194Z,2.36
2019-02-03T04:47:02.123Z,2.49
2019-02-03T04:48:02.024Z,2.48
2019-02-03T04:49:01.929Z,2.43
2019-02-03T04:50:01.854Z,2.48
2019-02-03T04:51:01.755Z,2.41
2019-02-03T04:52:01.671Z,2.41
2019-02-03T04:53:01.579Z,2.38
2019-02-03T04:54:01.744Z,2.36
2019-02-03T04:55:01.406Z,2.41
2019-02-03T04:56:01.318Z,2.43
2019-02-03T04:57:01.229Z,2.41
2019-02-03T04:58:01.144Z,2.42
2019-02-03T04:59:01.069Z,2.49
2019-02-03T05:00:00.970Z,2.35
2019-02-03T05:01:01.049Z,2.48
2019-02-03T05:02:00.798Z,2.53
2019-02-03T05:03:00.706Z,2.42
2019-02-03T05:04:00.620Z,2.43
2019-02-03T05:05:00.536Z,2.46
2019-02-03T05:06:00.445Z,2.46
2019-02-03T05:07:00.356Z,2.53
2019-02-03T05:08:00.270Z,2.52
2019-02-03T05:09:10.783Z,2.48
2019-02-03T05:10:00.103Z,2.46
2019-02-03T05:11:00.007Z,2.49
2019-02-03T05:11:59.919Z,2.52
2019-02-03T05:12:59.831Z,2.35
2019-02-03T05:13:59.745Z,2.45
2019-02-03T05:14:59.661Z,2.43
2019-02-03T05:15:59.574Z,2.52
2019-02-03T05:16:59.484Z,2.36
2019-02-03T05:17:59.397Z,2.42
2019-02-03T05:18:59.307Z,2.45
2019-02-03T05:19:59.220Z,2.46
2019-02-03T05:20:59.133Z,2.42
2019-02-03T05:21:59.047Z,2.41
2019-02-03T05:22:58.958Z,2.38
2019-02-03T05:23:59.521Z,2.43
2019-02-03T05:24:59.323Z,2.41
2019-02-03T05:25:59.242Z,2.42
2019-02-03T05:26:59.571Z,2.43
2019-02-03T05:30:42.275Z,2.39
2019-02-03T05:34:24.332Z,2.34
2019-02-03T05:35:22.894Z,2.42
2019-02-03T05:36:36.714Z,2.38
2019-02-03T05:39:25.098Z,2.41
2019-02-03T05:40:22.252Z,2.38
2019-02-03T05:41:22.361Z,2.35
2019-02-03T05:42:22.274Z,2.39
2019-02-03T05:43:22.333Z,2.39
2019-02-03T05:45:21.810Z,2.39
2019-02-03T05:46:21.772Z,2.39
2019-02-03T05:48:22.502Z,2.41
2019-02-03T05:49:21.463Z,2.45
2019-02-03T05:50:21.492Z,2.39
2019-02-03T05:51:21.285Z,2.39
2019-02-03T05:52:21.399Z,2.38
2019-02-03T05:53:21.313Z,2.41
2019-02-03T05:56:21.390Z,2.38
2019-02-03T05:57:21.121Z,2.39
2019-02-03T05:58:22.038Z,2.48
2019-02-03T06:00:20.699Z,2.39
2019-02-03T06:01:21.039Z,2.35
2019-02-03T06:07:23.469Z,2.39
2019-02-03T06:10:02.980Z,2.41
2019-02-03T06:15:02.744Z,2.41
2019-02-03T06:20:43.265Z,2.42
2019-02-03T06:23:43.214Z,2.41
2019-02-03T06:26:42.788Z,2.39
2019-02-03T06:28:55.376Z,2.38
2019-02-03T06:31:56.252Z,2.49
2019-02-03T06:33:55.668Z,2.42
2019-02-03T06:35:55.093Z,2.52
2019-02-03T06:48:01.032Z,2.35
2019-02-03T06:49:00.591Z,2.42
2019-02-03T06:50:00.929Z,2.49
2019-02-03T06:51:00.465Z,2.46
2019-02-03T06:52:00.376Z,2.48
2019-02-03T09:36:55.618Z,2.87
2019-02-03T09:41:00.271Z,2.90
2019-02-03T09:41:55.376Z,2.89
2019-02-03T09:42:54.884Z,2.79
2019-02-03T09:43:54.797Z,2.78
2019-02-03T09:44:54.710Z,2.78
2019-02-03T09:45:54.824Z,2.92
2019-02-03T09:46:54.549Z,2.85
2019-02-03T09:47:54.448Z,2.93
2019-02-03T09:48:56.768Z,2.95
2019-02-03T09:49:54.776Z,2.95
2019-02-03T09:51:54.098Z,2.93
2019-02-03T09:52:55.768Z,3.02
2019-02-03T09:55:54.501Z,2.99
2019-02-03T09:58:53.508Z,3.02
2019-02-03T09:59:53.825Z,2.99
2019-02-03T10:00:55.070Z,2.96
2019-02-03T10:02:56.531Z,2.97
2019-02-03T10:04:53.185Z,2.93
2019-02-03T10:05:56.807Z,2.93
2019-02-03T10:07:53.114Z,2.90
2019-02-03T10:09:53.498Z,2.89
2019-02-03T10:10:52.652Z,2.89
2019-02-03T10:11:53.126Z,2.87
2019-02-03T10:12:52.275Z,2.87
2019-02-03T10:13:53.416Z,2.87
2019-02-03T10:14:52.300Z,2.89
2019-02-03T10:15:52.213Z,2.96
2019-02-03T10:16:52.127Z,2.97
2019-02-03T10:17:51.837Z,2.92
2019-02-03T10:18:51.755Z,2.89
2019-02-03T10:19:51.668Z,2.95
2019-02-03T10:20:51.576Z,2.95
2019-02-03T10:21:51.487Z,2.96
2019-02-03T10:22:51.404Z,2.96
2019-02-03T10:23:51.528Z,2.95
2019-02-03T10:24:51.226Z,2.89
2019-02-03T10:25:51.140Z,2.90
2019-02-03T10:26:51.063Z,2.90
2019-02-03T10:28:51.091Z,2.89
2019-02-03T10:29:50.801Z,2.95
2019-02-03T10:30:50.715Z,2.95
2019-02-03T10:31:51.429Z,2.92
2019-02-03T10:32:50.752Z,2.87
2019-02-03T10:33:50.453Z,2.89
2019-02-03T10:34:51.977Z,2.93
2019-02-03T10:35:50.277Z,2.92
2019-02-03T10:37:50.102Z,2.93
2019-02-03T10:38:53.064Z,2.92
2019-02-03T10:39:49.927Z,2.90
2019-02-03T10:41:50.302Z,2.92
2019-02-03T10:42:49.667Z,2.92
2019-02-03T10:43:49.778Z,2.92
2019-02-03T10:44:52.611Z,3.02
2019-02-03T10:45:49.403Z,2.95
2019-02-03T10:46:49.317Z,3.00
2019-02-03T10:47:49.438Z,3.06
2019-02-03T10:48:49.197Z,3.02
2019-02-03T10:49:49.053Z,3.05
2019-02-03T10:50:48.965Z,3.06
2019-02-03T10:51:49.005Z,3.02
2019-02-03T10:52:48.790Z,3.02
2019-02-03T10:53:48.906Z,2.99
2019-02-03T10:54:48.616Z,2.97
2019-02-03T10:55:48.731Z,3.02
2019-02-03T10:56:48.442Z,3.00
2019-02-03T10:57:48.366Z,3.06
2019-02-03T10:58:48.281Z,3.06
2019-02-03T10:59:48.193Z,3.11
2019-02-03T11:00:48.104Z,3.08
2019-02-03T11:01:48.018Z,3.08
2019-02-03T11:02:47.929Z,3.08
2019-02-03T11:03:47.841Z,3.08
2019-02-03T11:04:47.755Z,3.14
2019-02-03T11:05:47.666Z,3.11
2019-02-03T11:06:47.580Z,3.05
2019-02-03T11:07:47.492Z,3.11
2019-02-03T11:08:47.405Z,3.11
2019-02-03T11:09:47.317Z,3.17
2019-02-03T11:10:47.229Z,3.14
2019-02-03T11:11:47.143Z,3.13
2019-02-03T11:12:47.058Z,3.08
2019-02-03T11:13:46.971Z,3.15
2019-02-03T11:14:46.881Z,3.18
2019-02-03T11:15:46.793Z,3.17
2019-02-03T11:16:46.717Z,3.18
2019-02-03T11:17:46.618Z,3.31
2019-02-03T11:18:46.531Z,3.24
2019-02-03T11:19:46.456Z,3.32
2019-02-03T11:20:46.356Z,3.24
2019-02-03T11:21:46.269Z,3.29
2019-02-03T11:22:46.192Z,3.29
2019-02-03T11:23:46.106Z,3.39
2019-02-03T11:24:46.018Z,3.33
2019-02-03T11:25:45.931Z,3.31
2019-02-03T11:26:45.979Z,3.29
2019-02-03T11:27:45.756Z,3.40
2019-02-03T11:28:45.669Z,3.47
2019-02-03T11:29:45.581Z,3.48
2019-02-03T11:30:45.494Z,3.47
2019-02-03T11:31:45.459Z,3.45
2019-02-03T11:32:45.319Z,3.50
2019-02-03T11:33:45.233Z,3.43
2019-02-03T11:34:45.144Z,3.42
2019-02-03T11:35:45.058Z,3.47
2019-02-03T11:36:44.970Z,3.47
2019-02-03T11:37:44.885Z,3.51
2019-02-03T11:38:44.808Z,3.50
2019-02-03T11:39:44.720Z,3.48
2019-02-03T11:40:44.639Z,3.51
2019-02-03T11:41:49.369Z,3.54
2019-02-03T11:42:44.460Z,3.40
2019-02-03T11:43:44.370Z,3.57
2019-02-03T11:44:44.283Z,3.48
2019-02-03T11:45:44.195Z,3.48
2019-02-03T11:46:44.109Z,3.52
2019-02-03T11:47:44.020Z,3.36
2019-02-03T11:48:43.935Z,3.52
2019-02-03T11:49:43.846Z,3.54
2019-02-03T11:50:43.759Z,3.52
2019-02-03T11:51:43.671Z,3.55
2019-02-03T11:52:43.588Z,3.62
2019-02-03T11:53:43.509Z,3.50
2019-02-03T11:54:43.421Z,3.52
2019-02-03T11:55:43.335Z,3.60
2019-02-03T11:56:43.247Z,3.62
2019-02-03T11:57:43.159Z,3.62
2019-02-03T11:58:43.071Z,3.65
2019-02-03T11:59:42.985Z,3.65
2019-02-03T12:00:42.901Z,3.61
2019-02-03T12:01:42.810Z,3.60
2019-02-03T12:02:42.723Z,3.55
2019-02-03T12:03:42.635Z,3.61
2019-02-03T12:04:42.548Z,3.60
2019-02-03T12:05:42.460Z,3.57
2019-02-03T12:06:42.375Z,3.61
2019-02-03T12:07:42.297Z,3.69
2019-02-03T12:08:42.211Z,3.66
2019-02-03T12:09:42.136Z,3.66
2019-02-03T12:10:42.037Z,3.61
2019-02-03T12:11:41.947Z,3.62
2019-02-03T12:12:41.863Z,3.62
2019-02-03T12:13:41.783Z,3.68
2019-02-03T12:14:41.687Z,3.62
2019-02-03T12:15:41.599Z,3.66
2019-02-03T12:16:41.518Z,3.61
2019-02-03T12:17:41.424Z,3.62
2019-02-03T12:18:41.471Z,3.66
2019-02-03T12:19:41.250Z,3.61
2019-02-03T12:20:41.176Z,3.57
2019-02-03T12:21:41.088Z,3.65
2019-02-03T12:22:40.999Z,3.69
2019-02-03T12:23:41.008Z,3.57
2019-02-03T12:24:40.827Z,3.62
2019-02-03T12:25:40.737Z,3.66
2019-02-03T12:26:40.650Z,3.58
2019-02-03T12:27:40.563Z,3.60
2019-02-03T12:28:40.488Z,3.61
2019-02-03T12:29:40.413Z,3.66
2019-02-03T12:30:40.301Z,3.60
2019-02-03T12:31:40.227Z,3.58
2019-02-03T12:32:40.127Z,3.65
2019-02-03T12:33:40.051Z,3.55
2019-02-03T12:34:39.963Z,3.55
2019-02-03T12:35:39.877Z,3.66
2019-02-03T12:36:40.070Z,3.68
2019-02-03T12:37:39.701Z,3.65
2019-02-03T12:38:39.614Z,3.57
2019-02-03T12:39:39.530Z,3.54
2019-02-03T12:40:39.442Z,3.68
2019-02-03T12:41:39.350Z,3.62
2019-02-03T12:42:39.264Z,3.55
2019-02-03T12:43:39.177Z,3.55
2019-02-03T12:44:39.090Z,3.57
2019-02-03T12:45:39.003Z,3.55
2019-02-03T12:46:39.135Z,3.48
2019-02-03T12:47:38.840Z,3.54
2019-02-03T12:48:38.752Z,3.50
2019-02-03T12:49:38.680Z,3.43
2019-02-03T12:50:38.580Z,3.43
2019-02-03T12:51:40.073Z,3.50
2019-02-03T12:52:38.402Z,3.31
2019-02-03T12:53:38.315Z,3.26
2019-02-03T12:54:38.230Z,3.28
2019-02-03T12:55:38.140Z,3.29
2019-02-03T12:56:38.053Z,3.32
2019-02-03T12:57:37.966Z,3.28
2019-02-03T12:58:37.879Z,3.32
2019-02-03T12:59:37.790Z,3.35
2019-02-03T13:00:37.704Z,3.23
2019-02-03T13:01:37.631Z,3.24
2019-02-03T13:02:37.542Z,3.26
2019-02-03T13:03:37.454Z,3.15
2019-02-03T13:04:37.373Z,3.15
2019-02-03T13:05:37.279Z,3.15
2019-02-03T13:06:37.197Z,3.29
2019-02-03T13:07:37.103Z,3.20
2019-02-03T13:08:37.016Z,3.20
2019-02-03T13:09:36.929Z,3.18
2019-02-03T13:10:36.843Z,3.14
2019-02-03T13:11:37.593Z,3.23
2019-02-03T13:12:36.667Z,3.20
2019-02-03T13:13:36.578Z,3.24
2019-02-03T13:14:36.493Z,3.20
2019-02-03T13:15:36.404Z,3.29
2019-02-03T13:16:36.318Z,3.23
2019-02-03T13:17:36.229Z,3.21
2019-02-03T13:18:36.155Z,3.14
2019-02-03T13:19:36.055Z,3.24
2019-02-03T13:20:35.972Z,3.29
2019-02-03T13:21:35.893Z,3.18
2019-02-03T13:22:35.805Z,3.20
2019-02-03T13:23:44.607Z,3.21
2019-02-03T13:24:35.631Z,3.21
2019-02-03T13:25:35.544Z,3.17
2019-02-03T13:26:35.458Z,3.18
2019-02-03T13:27:35.368Z,3.15
2019-02-03T13:28:35.445Z,3.17
2019-02-03T13:29:35.196Z,3.21
2019-02-03T13:30:35.106Z,3.21
2019-02-03T13:31:35.019Z,3.33
2019-02-03T13:32:34.945Z,3.32
2019-02-03T13:33:34.845Z,3.33
2019-02-03T13:34:34.756Z,3.28
2019-02-03T13:35:34.671Z,3.23
2019-02-03T13:36:34.581Z,3.31
2019-02-03T13:37:34.498Z,3.40
2019-02-03T13:38:34.547Z,3.32
2019-02-03T13:39:34.320Z,3.31
2019-02-03T13:40:34.235Z,3.32
2019-02-03T13:41:34.145Z,3.31
2019-02-03T13:42:37.625Z,3.29
2019-02-03T13:43:33.984Z,3.29
2019-02-03T13:44:33.884Z,3.31
2019-02-03T13:45:33.808Z,3.35
2019-02-03T13:46:33.721Z,3.33
2019-02-03T13:47:33.634Z,3.28
2019-02-03T13:48:33.546Z,3.42
2019-02-03T13:49:33.470Z,3.29
2019-02-03T13:50:33.373Z,3.39
2019-02-03T13:51:33.283Z,3.39
2019-02-03T13:52:33.197Z,3.35
2019-02-03T13:53:33.108Z,3.35
2019-02-03T13:54:33.022Z,3.47
2019-02-03T13:55:32.933Z,3.31
2019-02-03T13:56:32.847Z,3.43
2019-02-03T13:57:32.759Z,3.47
2019-02-03T13:58:37.029Z,3.43
2019-02-03T13:59:32.585Z,3.36
2019-02-03T14:00:32.497Z,3.40
2019-02-03T14:01:32.422Z,3.40
2019-02-03T14:02:32.334Z,3.52
2019-02-03T14:03:32.236Z,3.43
2019-02-03T14:04:32.159Z,3.39
2019-02-03T14:05:32.073Z,3.40
2019-02-03T14:06:31.985Z,3.40
2019-02-03T14:07:31.898Z,3.51
2019-02-03T14:08:31.822Z,3.50
2019-02-03T14:09:31.723Z,3.45
2019-02-03T14:10:31.636Z,3.28
2019-02-03T14:11:31.553Z,3.36
2019-02-03T14:12:31.460Z,3.29
2019-02-03T14:13:31.374Z,3.39
2019-02-03T14:14:31.297Z,3.24
2019-02-03T14:15:31.198Z,3.47
2019-02-03T14:16:31.111Z,3.45
2019-02-03T14:17:31.024Z,3.45
2019-02-03T14:18:30.936Z,3.52
2019-02-03T14:19:30.883Z,3.42
2019-02-03T14:20:30.764Z,3.39
2019-02-03T14:21:30.687Z,3.42
2019-02-03T14:22:30.600Z,3.36
2019-02-03T14:23:30.545Z,3.39
2019-02-03T14:24:33.012Z,3.45
2019-02-03T14:25:30.351Z,3.39
2019-02-03T14:26:30.252Z,3.40
2019-02-03T14:27:30.942Z,3.47
2019-02-03T14:28:30.076Z,3.45
2019-02-03T14:29:29.988Z,3.40
2019-02-03T14:30:39.746Z,3.43
2019-02-03T14:31:29.813Z,3.43
2019-02-03T14:32:29.725Z,3.39
2019-02-03T14:33:29.637Z,3.40
2019-02-03T14:34:29.551Z,3.43
2019-02-03T14:35:29.465Z,3.43
2019-02-03T14:36:29.376Z,3.42
2019-02-03T14:37:29.301Z,3.42
2019-02-03T14:38:32.384Z,3.40
2019-02-03T14:39:29.113Z,3.40
2019-02-03T14:40:29.038Z,3.39
2019-02-03T14:41:28.952Z,3.40
2019-02-03T14:42:28.863Z,3.42
2019-02-03T14:43:28.779Z,3.35
2019-02-03T14:44:28.702Z,3.45
2019-02-03T14:45:28.605Z,3.39
2019-02-03T14:46:28.516Z,3.45
2019-02-03T14:47:28.431Z,3.43
2019-02-03T14:48:28.338Z,3.40
2019-02-03T14:49:28.255Z,3.54
2019-02-03T14:50:28.164Z,3.48
2019-02-03T14:51:28.078Z,3.47
2019-02-03T14:52:28.003Z,3.40
2019-02-03T14:53:27.904Z,3.42
2019-02-03T14:54:27.815Z,3.43
2019-02-03T14:55:27.734Z,3.40
2019-02-03T14:56:27.640Z,3.45
2019-02-03T14:57:27.553Z,3.40
2019-02-03T14:58:27.467Z,3.42
2019-02-03T14:59:27.391Z,3.40
2019-02-03T15:00:27.307Z,3.47
2019-02-03T15:01:27.215Z,3.39
2019-02-03T15:02:27.139Z,3.40
2019-02-03T15:03:27.127Z,3.28
2019-02-03T15:04:27.050Z,3.39
2019-02-03T15:05:26.869Z,3.42
2019-02-03T15:06:26.784Z,3.26
2019-02-03T15:07:37.263Z,3.29
2019-02-03T15:08:26.605Z,3.35
2019-02-03T15:09:26.516Z,3.24
2019-02-03T15:10:26.429Z,3.35
2019-02-03T15:11:26.343Z,3.32
2019-02-03T15:12:26.254Z,3.32
2019-02-03T15:13:26.176Z,3.33
2019-02-03T15:14:26.083Z,3.33
2019-02-03T15:15:26.006Z,3.31
2019-02-03T15:16:25.905Z,3.24
2019-02-03T15:17:25.817Z,3.31
2019-02-03T15:18:25.755Z,3.26
2019-02-03T15:19:25.727Z,3.31
2019-02-03T15:20:25.567Z,3.32
2019-02-03T15:21:25.481Z,3.26
2019-02-03T15:22:25.394Z,3.33
2019-02-03T15:23:25.309Z,3.20
2019-02-03T15:24:25.219Z,3.31
2019-02-03T15:25:25.137Z,3.31
2019-02-03T15:26:25.043Z,3.26
2019-02-03T15:27:24.956Z,3.28
2019-02-03T15:28:24.868Z,3.18
2019-02-03T15:29:24.784Z,3.32
2019-02-03T15:30:24.694Z,3.26
2019-02-03T15:31:24.607Z,3.28
2019-02-03T15:32:24.531Z,3.28
2019-02-03T15:33:24.431Z,3.15
2019-02-03T15:34:24.345Z,3.29
2019-02-03T15:35:24.257Z,3.24
2019-02-03T15:36:24.169Z,3.21
2019-02-03T15:37:24.082Z,3.24
2019-02-03T15:38:23.994Z,3.20
2019-02-03T15:39:23.910Z,3.18
2019-02-03T15:40:23.821Z,3.23
2019-02-03T15:41:23.734Z,3.18
2019-02-03T15:42:23.646Z,3.18
2019-02-03T15:43:25.571Z,3.14
2019-02-03T15:44:23.485Z,3.18
2019-02-03T15:45:23.398Z,3.17
2019-02-03T15:46:23.313Z,3.18
2019-02-03T15:47:23.220Z,3.06
2019-02-03T15:48:23.133Z,3.17
2019-02-03T15:49:23.045Z,3.11
2019-02-03T15:50:22.958Z,3.06
2019-02-03T15:51:22.871Z,3.15
2019-02-03T15:52:22.786Z,3.15
2019-02-03T15:53:22.695Z,3.17
2019-02-03T15:54:22.609Z,3.18
2019-02-03T15:55:22.521Z,3.17
2019-02-03T15:56:22.434Z,3.26
2019-02-03T15:57:22.346Z,3.15
2019-02-03T15:58:22.260Z,3.18
2019-02-03T15:59:22.171Z,3.18
2019-02-03T16:00:22.084Z,3.18
2019-02-03T16:01:22.010Z,3.14
2019-02-03T16:02:21.910Z,3.13
2019-02-03T16:03:21.822Z,3.15
2019-02-03T16:04:21.736Z,3.10
2019-02-03T16:05:21.646Z,3.08
2019-02-03T16:06:21.571Z,3.10
2019-02-03T16:07:21.472Z,3.10
2019-02-03T16:08:21.385Z,3.18
2019-02-03T16:09:21.298Z,3.14
2019-02-03T16:10:21.211Z,3.00
2019-02-03T16:11:21.123Z,3.00
2019-02-03T16:12:21.041Z,2.99
2019-02-03T16:13:20.961Z,3.11
2019-02-03T16:14:20.872Z,3.10
2019-02-03T16:15:20.786Z,3.10
2019-02-03T16:16:20.698Z,3.11
2019-02-03T16:17:20.612Z,3.10
2019-02-03T16:18:20.524Z,3.05
2019-02-03T16:19:20.437Z,3.13
2019-02-03T16:20:20.363Z,3.03
2019-02-03T16:21:20.261Z,3.00
2019-02-03T16:22:20.174Z,3.03
2019-02-03T16:23:20.094Z,3.02
2019-02-03T16:24:20.000Z,3.00
2019-02-03T16:25:22.328Z,3.00
2019-02-03T16:26:19.824Z,2.99
2019-02-03T16:27:19.743Z,3.02
2019-02-03T16:28:19.649Z,2.97
2019-02-03T16:29:19.563Z,3.03
2019-02-03T16:30:19.476Z,3.02
2019-02-03T16:31:19.400Z,2.96
2019-02-03T16:32:19.299Z,3.00
2019-02-03T16:33:19.212Z,2.96
2019-02-03T16:34:19.128Z,3.05
2019-02-03T16:35:19.038Z,3.03
2019-02-03T16:36:18.950Z,2.99
2019-02-03T16:37:18.863Z,2.95
2019-02-03T16:38:23.158Z,2.93
2019-02-03T16:39:18.696Z,2.89
2019-02-03T16:40:18.599Z,2.95
2019-02-03T16:41:18.522Z,2.90
2019-02-03T16:42:18.425Z,2.92
2019-02-03T16:43:18.338Z,2.97
2019-02-03T16:44:18.250Z,2.95
2019-02-03T16:45:18.167Z,2.92
2019-02-03T16:46:18.077Z,2.87
2019-02-03T16:47:18.058Z,2.96
2019-02-03T16:48:17.912Z,2.93
2019-02-03T16:49:17.814Z,2.93
2019-02-03T16:50:17.757Z,2.93
2019-02-03T16:51:17.639Z,2.97
2019-02-03T16:52:17.552Z,2.92
2019-02-03T16:53:17.470Z,2.92
2019-02-03T16:54:17.378Z,3.00
2019-02-03T16:55:17.291Z,3.03
2019-02-03T16:56:17.202Z,3.00
2019-02-03T16:57:19.769Z,2.90
2019-02-03T16:58:17.039Z,2.84
2019-02-03T16:59:16.952Z,2.95
2019-02-03T17:00:16.865Z,2.93
2019-02-03T17:01:16.779Z,2.90
2019-02-03T17:02:16.693Z,2.92
2019-02-03T17:03:16.604Z,2.89
2019-02-03T17:04:16.517Z,3.00
2019-02-03T17:05:25.208Z,3.02